Time;durP1;ratioP1;P1;durP2;ratioP2;P2;SDS_P1;SDS_P2;PMS_P1;PMS_P2;Temp;Humidity;BMP_temperature;BMP_pressure;BME280_temperature;BME280_humidity;BME280_pressure;Samples;Min_cycle;Max_cycle;Signal;HPM_P1;HPM_P2
2023/03/01 00:03:43;;;;;;;13.30;11.43;;;;;;;4.65;43.58;98826.66;8382226;28;20240;-77
2023/03/01 00:07:46;;;;;;;11.97;10.67;;;;;;;4.68;43.69;98826.66;8382514;28;20237;-77
2023/03/01 00:11:49;;;;;;;14.00;11.10;;;;;;;4.59;43.45;98811.31;8381902;28;20236;-76
2023/03/01 00:15:54;;;;;;;12.97;11.53;;;;;;;4.49;43.71;98784.00;8382257;28;20225;-77
2023/03/01 00:19:56;;;;;;;15.43;11.33;;;;;;;4.68;43.47;98821.53;8381059;28;20233;-76
2023/03/01 00:23:59;;;;;;;14.70;11.17;;;;;;;4.75;43.16;98826.59;8381982;28;20558;-77
2023/03/01 00:28:02;;;;;;;14.60;11.07;;;;;;;4.51;43.52;98828.44;8382015;28;20229;-77
2023/03/01 00:32:06;;;;;;;12.60;10.93;;;;;;;4.72;43.51;98813.78;8381510;28;20229;-77
2023/03/01 00:36:10;;;;;;;14.23;11.70;;;;;;;4.72;43.24;98814.63;8381280;28;20235;-77
2023/03/01 00:40:16;;;;;;;15.97;11.03;;;;;;;4.76;43.27;98812.91;8381134;28;20225;-78
2023/03/01 00:44:19;;;;;;;12.87;11.47;;;;;;;4.80;43.03;98807.75;8380830;28;20232;-77
2023/03/01 00:48:23;;;;;;;13.93;11.77;;;;;;;4.80;42.84;98815.44;8381186;28;20239;-78
2023/03/01 00:52:26;;;;;;;14.13;11.60;;;;;;;4.73;43.30;98811.22;8380692;28;20240;-78
2023/03/01 00:56:29;;;;;;;13.73;11.80;;;;;;;4.52;43.73;98824.19;8381083;28;20246;-78
2023/03/01 01:00:33;;;;;;;13.13;11.20;;;;;;;4.69;43.14;98815.50;8380973;28;20477;-78
2023/03/01 01:04:40;;;;;;;14.23;11.60;;;;;;;4.61;42.90;98799.31;8380733;28;20536;-77
2023/03/01 01:08:43;;;;;;;14.33;11.73;;;;;;;4.61;43.14;98785.66;8379600;28;20225;-77
2023/03/01 01:12:51;;;;;;;13.27;11.90;;;;;;;4.54;43.24;98784.84;8379784;28;20225;-78
2023/03/01 01:16:54;;;;;;;14.13;12.33;;;;;;;4.33;43.17;98749.94;8380326;28;20224;-77
2023/03/01 01:20:58;;;;;;;15.70;12.30;;;;;;;4.65;42.71;98782.19;8380199;28;20262;-77
2023/03/01 01:25:01;;;;;;;13.87;12.37;;;;;;;4.66;42.89;98771.94;8380063;28;20237;-77
2023/03/01 01:29:05;;;;;;;13.80;11.43;;;;;;;4.70;42.92;98765.03;8379492;28;20225;-77
2023/03/01 01:33:08;;;;;;;13.23;11.83;;;;;;;4.64;43.00;98760.81;8379920;28;20228;-77
2023/03/01 01:37:15;;;;;;;13.43;11.77;;;;;;;4.44;42.99;98740.44;8379614;28;20395;-77
2023/03/01 01:41:18;;;;;;;13.90;11.97;;;;;;;4.52;42.99;98747.25;8379853;28;20229;-77
2023/03/01 01:45:30;;;;;;;14.27;12.20;;;;;;;4.63;43.11;98748.84;8362099;28;20382;-77
2023/03/01 01:49:36;;;;;;;13.97;11.93;;;;;;;4.47;43.41;98734.44;8379427;28;20225;-77
2023/03/01 01:53:41;;;;;;;15.27;12.57;;;;;;;3.92;42.97;98639.13;8379343;28;20236;-77
2023/03/01 01:57:46;;;;;;;15.50;12.57;;;;;;;4.53;43.31;98747.19;8378972;28;20224;-77
2023/03/01 02:01:50;;;;;;;12.77;11.40;;;;;;;4.50;43.21;98740.41;8379364;28;20231;-77
2023/03/01 02:05:59;;;;;;;13.67;12.03;;;;;;;4.53;42.82;98730.97;8379679;28;20228;-78
2023/03/01 02:10:03;;;;;;;15.33;12.40;;;;;;;4.44;42.90;98712.22;8379592;28;20224;-77
2023/03/01 02:14:07;;;;;;;14.63;12.43;;;;;;;4.50;43.07;98730.13;8379367;28;20267;-77
2023/03/01 02:18:11;;;;;;;14.33;12.33;;;;;;;4.36;43.13;98711.44;8379306;28;20221;-77
2023/03/01 02:22:21;;;;;;;13.57;12.13;;;;;;;4.42;42.68;98720.81;8379132;28;20574;-78
2023/03/01 02:26:31;;;;;;;14.90;12.90;;;;;;;3.88;42.65;98667.31;8379050;28;20233;-77
2023/03/01 02:30:36;;;;;;;14.37;11.97;;;;;;;4.27;43.43;98714.06;8378802;28;20235;-77
2023/03/01 02:34:40;;;;;;;15.50;12.53;;;;;;;4.18;43.32;98709.00;8378546;28;20225;-77
2023/03/01 02:38:43;;;;;;;14.77;12.53;;;;;;;4.26;43.75;98704.66;8378441;28;20422;-77
2023/03/01 02:42:51;;;;;;;15.37;12.20;;;;;;;4.09;43.33;98705.66;8382159;28;20240;-78
2023/03/01 02:46:57;;;;;;;14.87;12.37;;;;;;;4.16;43.65;98698.75;8385102;28;20220;-78
2023/03/01 02:51:06;;;;;;;15.90;12.60;;;;;;;4.06;43.59;98669.78;8384767;28;20296;-77
2023/03/01 02:55:10;;;;;;;14.20;12.70;;;;;;;4.29;43.07;98692.69;8384581;28;20229;-76
2023/03/01 02:59:13;;;;;;;14.07;11.63;;;;;;;4.34;43.39;98700.34;8384255;28;20251;-77
2023/03/01 03:03:20;;;;;;;14.23;12.27;;;;;;;3.59;43.35;98586.38;8384423;28;20225;-77
2023/03/01 03:07:23;;;;;;;13.97;12.23;;;;;;;4.21;43.38;98686.75;8384390;28;20224;-77
2023/03/01 03:11:25;;;;;;;14.70;11.67;;;;;;;3.99;43.46;98654.44;8384291;28;20240;-77
2023/03/01 03:15:29;;;;;;;15.10;12.60;;;;;;;3.55;43.50;98605.19;8383868;28;20417;-77
2023/03/01 03:19:34;;;;;;;15.50;12.17;;;;;;;4.23;42.99;98681.63;8384065;28;20532;-77
2023/03/01 03:23:38;;;;;;;13.23;11.47;;;;;;;4.05;43.54;98680.88;8384035;28;20236;-77
2023/03/01 03:27:42;;;;;;;13.83;12.33;;;;;;;3.97;43.63;98669.00;8383984;28;20232;-77
2023/03/01 03:31:45;;;;;;;14.80;12.20;;;;;;;3.84;43.73;98653.69;8383312;28;20444;-78
2023/03/01 03:35:50;;;;;;;16.53;13.47;;;;;;;4.09;43.68;98671.44;8383635;28;20231;-78
2023/03/01 03:39:54;;;;;;;14.60;11.80;;;;;;;3.90;43.76;98671.59;8383490;28;20251;-77
2023/03/01 03:43:57;;;;;;;14.27;11.27;;;;;;;4.14;43.28;98672.28;8383159;28;20576;-78
2023/03/01 03:48:00;;;;;;;15.47;12.80;;;;;;;4.08;43.92;98665.47;8383251;28;20232;-77
2023/03/01 03:52:04;;;;;;;14.70;12.70;;;;;;;3.90;44.17;98661.34;8382388;28;20228;-78
2023/03/01 03:56:09;;;;;;;14.87;12.00;;;;;;;3.69;43.68;98603.41;8382958;28;20224;-77
2023/03/01 04:00:13;;;;;;;13.70;12.00;;;;;;;3.30;43.63;98537.91;8382724;28;20228;-77
2023/03/01 04:04:18;;;;;;;15.27;12.13;;;;;;;4.01;43.35;98655.28;8382679;28;20221;-77
2023/03/01 04:08:23;;;;;;;16.30;12.10;;;;;;;3.98;43.56;98658.72;8382481;28;20229;-78
2023/03/01 04:12:26;;;;;;;14.67;12.40;;;;;;;3.71;43.56;98621.31;8382514;28;20503;-78
2023/03/01 04:16:29;;;;;;;13.70;12.23;;;;;;;3.78;43.85;98650.31;8382302;28;20232;-77
2023/03/01 04:20:34;;;;;;;14.83;12.27;;;;;;;3.71;43.56;98652.91;8382036;28;20239;-77
2023/03/01 04:24:38;;;;;;;14.63;12.27;;;;;;;3.91;43.99;98654.50;8364529;28;20418;-77
2023/03/01 04:28:44;;;;;;;14.37;12.07;;;;;;;3.05;43.76;98503.94;8381493;28;20228;-78
2023/03/01 04:32:47;;;;;;;16.17;12.40;;;;;;;3.91;43.64;98668.16;8381745;28;20503;-78
2023/03/01 04:36:50;;;;;;;15.27;11.93;;;;;;;3.85;43.89;98655.41;8381429;28;20228;-78
2023/03/01 04:40:54;;;;;;;15.57;12.57;;;;;;;3.74;43.85;98631.53;8381270;28;20233;-78
2023/03/01 04:44:57;;;;;;;15.17;12.83;;;;;;;3.89;43.58;98664.75;8381401;28;20247;-78
2023/03/01 04:49:00;;;;;;;15.30;12.53;;;;;;;3.83;43.72;98662.25;8381286;28;20247;-78
2023/03/01 04:53:03;;;;;;;14.97;12.73;;;;;;;3.72;43.79;98664.00;8380587;28;20224;-78
2023/03/01 04:57:07;;;;;;;14.43;12.23;;;;;;;3.82;43.62;98657.13;8381050;28;20236;-78
2023/03/01 05:01:14;;;;;;;17.07;13.10;;;;;;;3.73;43.59;98650.31;8381006;28;20225;-77
2023/03/01 05:05:18;;;;;;;16.13;13.33;;;;;;;3.59;44.13;98670.06;8380113;28;20234;-78
2023/03/01 05:09:20;;;;;;;14.93;12.00;;;;;;;3.80;44.20;98669.09;8380834;28;20224;-77
2023/03/01 05:13:24;;;;;;;14.93;12.90;;;;;;;3.55;44.46;98673.50;8380770;28;20225;-78
2023/03/01 05:17:28;;;;;;;15.23;12.77;;;;;;;3.84;43.64;98670.78;8380574;28;20405;-76
2023/03/01 05:21:31;;;;;;;15.40;12.97;;;;;;;3.75;44.03;98673.38;8380787;28;20224;-78
2023/03/01 05:25:34;;;;;;;14.17;12.63;;;;;;;3.70;43.79;98652.94;8380540;28;20266;-78
2023/03/01 05:29:39;;;;;;;18.40;12.53;;;;;;;3.78;44.00;98663.13;8380131;28;20421;-77
2023/03/01 05:33:45;;;;;;;15.73;12.33;;;;;;;3.62;43.92;98652.13;8379371;28;20224;-78
2023/03/01 05:37:51;;;;;;;17.07;12.70;;;;;;;3.65;44.37;98660.63;8379447;28;20224;-77
2023/03/01 05:41:55;;;;;;;15.13;13.23;;;;;;;3.56;44.22;98662.38;8379508;28;20294;-78
2023/03/01 05:45:59;;;;;;;15.33;12.50;;;;;;;3.61;44.35;98658.09;8379293;28;20255;-78
2023/03/01 05:50:02;;;;;;;18.53;12.97;;;;;;;3.69;44.09;98649.53;8379682;28;20254;-78
2023/03/01 05:54:06;;;;;;;16.37;12.90;;;;;;;3.66;44.10;98652.09;8379185;28;20294;-78
2023/03/01 05:58:11;;;;;;;16.90;13.27;;;;;;;3.68;43.86;98641.84;8378720;28;20237;-77
2023/03/01 06:02:16;;;;;;;16.93;13.73;;;;;;;3.63;43.99;98648.69;8379479;28;20228;-79
2023/03/01 06:06:18;;;;;;;17.27;13.03;;;;;;;3.55;44.12;98648.72;8379167;28;20235;-78
2023/03/01 06:10:22;;;;;;;15.63;12.93;;;;;;;3.66;44.06;98643.56;8379386;28;20239;-79
2023/03/01 06:14:25;;;;;;;17.93;14.00;;;;;;;3.60;43.73;98647.00;8379513;28;20233;-80
2023/03/01 06:18:30;;;;;;;15.83;13.83;;;;;;;3.56;44.06;98631.66;8385717;28;20225;-78
2023/03/01 06:22:33;;;;;;;18.03;13.37;;;;;;;3.47;43.93;98625.72;8385586;28;20231;-78
2023/03/01 06:26:36;;;;;;;17.67;13.43;;;;;;;3.71;43.67;98622.19;8385708;28;20225;-81
2023/03/01 06:30:39;;;;;;;19.13;13.90;;;;;;;3.84;43.40;98640.88;8385748;28;20232;-78
2023/03/01 06:34:43;;;;;;;18.53;13.70;;;;;;;4.47;42.53;98625.00;8385220;28;20213;-79
2023/03/01 06:38:46;;;;;;;16.13;13.70;;;;;;;4.38;42.11;98581.50;8385150;28;20412;-78
2023/03/01 06:42:50;;;;;;;16.10;13.90;;;;;;;4.63;42.10;98637.69;8384905;28;20235;-78
2023/03/01 06:46:53;;;;;;;16.63;13.20;;;;;;;5.13;41.28;98640.59;8385020;28;20225;-79
2023/03/01 06:51:01;;;;;;;17.40;13.83;;;;;;;5.68;40.28;98634.72;8384713;28;20236;-78
2023/03/01 06:55:05;;;;;;;16.27;13.53;;;;;;;5.98;39.54;98627.50;8384840;28;20229;-78
2023/03/01 06:59:07;;;;;;;16.73;13.90;;;;;;;5.53;39.80;98574.13;8384777;28;20409;-79
2023/03/01 07:03:10;;;;;;;18.13;14.40;;;;;;;6.20;39.37;98625.41;8384417;28;20233;-79
2023/03/01 07:07:15;;;;;;;17.27;12.93;;;;;;;6.61;38.81;98634.16;8384615;28;20247;-78
2023/03/01 07:11:18;;;;;;;19.67;14.33;;;;;;;6.57;38.57;98623.06;8384102;28;20243;-78
2023/03/01 07:15:21;;;;;;;17.27;13.97;;;;;;;6.57;37.96;98569.03;8384396;28;20217;-78
2023/03/01 07:19:24;;;;;;;15.70;12.77;;;;;;;7.37;37.46;98613.81;8384365;28;20220;-78
2023/03/01 07:23:28;;;;;;;17.20;13.77;;;;;;;7.30;37.55;98621.69;8383935;28;20255;-78
2023/03/01 07:27:31;;;;;;;18.33;14.33;;;;;;;6.98;37.20;98618.88;8383378;28;20282;-79
2023/03/01 07:31:34;;;;;;;20.13;13.30;;;;;;;7.09;36.61;98556.03;8383731;28;20240;-79
2023/03/01 07:35:37;;;;;;;16.00;13.57;;;;;;;7.47;36.64;98601.56;8382972;28;20228;-78
2023/03/01 07:39:44;;;;;;;17.77;13.27;;;;;;;7.69;35.66;98617.44;8383298;28;20236;-78
2023/03/01 07:43:48;;;;;;;15.80;12.77;;;;;;;7.85;36.34;98610.19;8382736;28;20548;-80
2023/03/01 07:47:51;;;;;;;16.50;14.40;;;;;;;7.37;35.20;98482.41;8383232;28;20251;-75
2023/03/01 07:51:54;;;;;;;15.23;13.30;;;;;;;7.88;36.05;98607.53;8381973;28;20241;-76
2023/03/01 07:56:06;;;;;;;14.23;12.73;;;;;;;8.38;34.81;98605.47;8383136;28;20547;-76
2023/03/01 08:00:11;;;;;;;16.47;13.27;;;;;;;8.60;34.79;98607.50;8383083;28;20391;-76
2023/03/01 08:04:14;;;;;;;15.07;10.53;;;;;;;12.01;54.91;98607.59;8382651;28;20232;-76
2023/03/01 08:08:17;;;;;;;17.00;13.73;;;;;;;10.28;34.08;98598.25;8382972;28;20406;-76
2023/03/01 08:12:22;;;;;;;15.30;12.77;;;;;;;9.80;33.87;98598.91;8382488;28;20432;-77
2023/03/01 08:16:24;;;;;;;14.27;12.77;;;;;;;10.58;32.71;98592.97;8382342;28;20508;-76
2023/03/01 08:20:27;;;;;;;15.77;13.07;;;;;;;10.21;31.97;98598.53;8382413;28;20317;-76
2023/03/01 08:24:30;;;;;;;14.37;12.67;;;;;;;10.30;32.27;98575.78;8382089;28;20545;-76
2023/03/01 08:28:35;;;;;;;16.40;13.80;;;;;;;9.42;31.51;98595.75;8382053;28;20386;-76
2023/03/01 08:32:38;;;;;;;14.47;12.90;;;;;;;10.18;31.67;98578.75;8382050;28;20237;-77
2023/03/01 08:36:43;;;;;;;15.17;13.57;;;;;;;10.85;30.58;98592.91;8380939;28;20218;-77
2023/03/01 08:40:46;;;;;;;17.67;14.57;;;;;;;10.41;30.10;98552.09;8380151;28;20227;-77
2023/03/01 08:44:51;;;;;;;16.00;13.77;;;;;;;11.56;29.11;98578.19;8380975;28;20514;-74
2023/03/01 08:48:54;;;;;;;19.00;14.67;;;;;;;10.81;29.52;98576.63;8381198;28;20225;-74
2023/03/01 08:52:56;;;;;;;16.37;14.67;;;;;;;11.30;30.21;98555.84;8380872;28;20256;-76
2023/03/01 08:57:02;;;;;;;15.17;13.57;;;;;;;12.04;29.03;98547.78;8380975;28;20237;-75
2023/03/01 09:01:09;;;;;;;22.30;15.30;;;;;;;10.98;29.63;98557.03;8380685;28;20224;-75
2023/03/01 09:05:12;;;;;;;17.97;15.40;;;;;;;12.26;28.53;98503.56;8380912;28;20419;-75
2023/03/01 09:09:16;;;;;;;16.77;15.03;;;;;;;10.32;29.62;98552.44;8380462;28;20225;-75
2023/03/01 09:13:19;;;;;;;17.30;14.70;;;;;;;9.90;29.74;98537.38;8380370;28;20398;-76
2023/03/01 09:17:24;;;;;;;15.83;13.30;;;;;;;11.81;28.78;98530.53;8380262;28;20243;-78
2023/03/01 09:21:26;;;;;;;17.87;15.23;;;;;;;9.49;30.57;98535.22;8380203;28;20236;-75
2023/03/01 09:25:42;;;;;;;17.07;14.60;;;;;;;10.08;29.82;98541.97;8379687;28;20242;-78
2023/03/01 09:29:44;;;;;;;16.03;14.33;;;;;;;10.83;28.96;98545.47;8380083;28;20232;-77
2023/03/01 09:33:50;;;;;;;16.37;13.77;;;;;;;9.35;30.31;98538.25;8379930;28;20285;-76
2023/03/01 09:37:52;;;;;;;17.53;15.03;;;;;;;10.76;28.35;98535.34;8379937;28;20236;-76
2023/03/01 09:42:02;;;;;;;16.87;13.47;;;;;;;9.49;30.79;98530.06;8379316;28;20246;-76
2023/03/01 09:46:07;;;;;;;16.27;13.30;;;;;;;10.41;28.96;98535.72;8379803;28;20519;-76
2023/03/01 09:50:14;;;;;;;14.20;12.70;;;;;;;10.71;28.82;98534.66;8379331;28;20220;-76
2023/03/01 09:54:17;;;;;;;15.37;12.77;;;;;;;10.87;28.63;98516.81;8379509;28;20328;-76
2023/03/01 09:58:40;;;;;;;15.87;13.70;;;;;;;9.61;29.74;98522.81;8379454;28;20231;-76
2023/03/01 10:02:45;;;;;;;17.40;14.77;;;;;;;8.57;30.70;98523.25;8378746;28;20222;-77
2023/03/01 10:06:59;;;;;;;18.10;16.13;;;;;;;11.24;28.46;98517.19;8379475;28;20426;-77
2023/03/01 10:11:02;;;;;;;16.60;12.90;;;;;;;9.20;30.24;98513.69;8379265;28;20222;-76
2023/03/01 10:15:07;;;;;;;23.13;13.97;;;;;;;10.17;28.91;98504.59;8379126;28;20406;-76
2023/03/01 10:19:13;;;;;;;17.37;15.43;;;;;;;11.53;26.79;98498.72;8379261;28;20228;-76
2023/03/01 10:23:17;;;;;;;18.20;14.90;;;;;;;11.82;27.07;98493.28;8379244;28;20401;-76
2023/03/01 10:27:23;;;;;;;15.13;12.57;;;;;;;12.28;27.14;98487.03;8379050;28;20421;-76
2023/03/01 10:31:29;;;;;;;15.20;13.43;;;;;;;9.52;28.92;98486.00;8379403;28;20228;-76
2023/03/01 10:35:35;;;;;;;19.17;16.00;;;;;;;10.17;28.98;98478.72;8378698;28;20228;-76
2023/03/01 10:39:56;;;;;;;15.63;13.83;;;;;;;11.93;26.75;98471.19;8379244;28;20237;-76
2023/03/01 10:44:00;;;;;;;20.30;12.60;;;;;;;10.68;27.36;98470.03;8378708;28;20225;-76
2023/03/01 10:48:14;;;;;;;16.20;12.50;;;;;;;10.61;27.49;98411.56;8378629;28;20232;-76
2023/03/01 10:52:20;;;;;;;15.70;12.53;;;;;;;10.12;28.19;98473.69;8378685;28;20235;-76
2023/03/01 10:56:25;;;;;;;14.60;12.90;;;;;;;9.82;29.40;98460.03;8378811;28;20229;-76
2023/03/01 11:00:28;;;;;;;15.37;12.37;;;;;;;9.63;29.39;98457.22;8378296;28;20267;-75
2023/03/01 11:04:31;;;;;;;14.17;11.80;;;;;;;10.11;28.73;98453.03;8382707;28;20234;-75
2023/03/01 11:08:37;;;;;;;14.83;12.43;;;;;;;10.45;28.22;98437.19;8384555;28;20232;-75
2023/03/01 11:12:41;;;;;;;14.20;12.80;;;;;;;10.32;29.30;98430.78;8383362;28;20441;-75
2023/03/01 11:16:46;;;;;;;14.50;11.80;;;;;;;9.69;29.81;98428.59;8383877;28;20478;-75
2023/03/01 11:20:49;;;;;;;13.15;11.75;;;;;;;11.18;28.46;98411.13;8383692;28;20717;-75
2023/03/01 11:24:55;;;;;;;12.47;11.13;;;;;;;13.17;26.34;98393.78;8384183;28;20229;-76
2023/03/01 11:29:19;;;;;;;29.57;13.43;;;;;;;12.40;26.04;98349.78;8383727;28;20336;-75
2023/03/01 11:33:34;;;;;;;26.93;12.97;;;;;;;12.05;26.69;98373.81;8383820;28;20225;-75
2023/03/01 11:37:40;;;;;;;19.80;11.03;;;;;;;13.27;26.45;98376.84;8383953;28;20229;-75
2023/03/01 11:41:43;;;;;;;13.65;12.25;;;;;;;13.14;26.17;98357.53;8383590;28;20418;-75
2023/03/01 11:46:05;;;;;;;14.03;12.43;;;;;;;13.41;25.80;98370.97;8384459;28;20229;-76
2023/03/01 11:50:15;;;;;;;13.97;12.50;;;;;;;12.49;26.66;98362.34;8383241;28;20520;-75
2023/03/01 11:54:28;;;;;;;14.40;12.20;;;;;;;11.13;29.07;98359.47;8383023;28;20248;-75
2023/03/01 11:58:44;;;;;;;13.33;11.93;;;;;;;10.63;29.06;98352.78;8382785;28;20229;-75
2023/03/01 12:03:03;;;;;;;16.10;12.33;;;;;;;10.50;29.28;98346.38;8382427;28;20233;-75
2023/03/01 12:07:12;;;;;;;13.20;11.80;;;;;;;12.30;27.88;98328.56;8382857;28;20225;-75
2023/03/01 12:11:28;;;;;;;14.07;12.20;;;;;;;11.61;28.79;98334.16;8382660;28;20232;-75
2023/03/01 12:15:48;;;;;;;15.13;12.53;;;;;;;12.25;27.71;98331.34;8382267;28;20229;-75
2023/03/01 12:20:09;;;;;;;12.93;11.63;;;;;;;12.64;27.22;98314.84;8380821;28;20502;-75
2023/03/01 12:24:26;;;;;;;13.80;10.90;;;;;;;12.26;26.74;98150.44;8381948;28;20236;-75
2023/03/01 12:28:51;;;;;;;12.97;11.53;;;;;;;13.14;27.16;98307.31;8382136;28;20547;-75
2023/03/01 12:33:05;;;;;;;16.57;12.87;;;;;;;12.52;27.30;98258.28;8381721;28;20334;-75
2023/03/01 12:37:22;;;;;;;13.00;11.57;;;;;;;13.10;27.01;98302.25;8381524;28;20485;-75
2023/03/01 12:41:44;;;;;;;11.47;10.37;;;;;;;12.76;26.97;98304.81;8381664;28;20228;-75
2023/03/01 12:45:54;;;;;;;12.70;11.13;;;;;;;12.99;27.80;98293.28;8380249;28;20224;-76
2023/03/01 12:50:01;;;;;;;14.93;11.77;;;;;;;13.59;26.28;98288.53;8381085;28;20412;-76
2023/03/01 12:54:08;;;;;;;13.40;11.63;;;;;;;11.54;28.45;98279.97;8381150;28;20285;-76
2023/03/01 12:58:20;;;;;;;12.67;11.37;;;;;;;13.20;27.61;98274.00;8380944;28;20217;-76
2023/03/01 13:02:27;;;;;;;12.87;11.30;;;;;;;13.31;26.76;98270.91;8380858;28;20570;-76
2023/03/01 13:06:40;;;;;;;15.23;12.53;;;;;;;12.32;28.67;98246.25;8380245;28;20237;-76
2023/03/01 13:10:50;;;;;;;14.17;12.50;;;;;;;13.04;27.76;98262.69;8380184;28;20225;-76
2023/03/01 13:14:55;;;;;;;12.73;11.43;;;;;;;13.83;26.97;98259.56;8380436;28;20221;-76
2023/03/01 13:19:08;;;;;;;15.10;12.07;;;;;;;13.49;27.18;98248.31;8380543;28;20233;-77
2023/03/01 13:23:15;;;;;;;16.87;13.70;;;;;;;13.54;27.13;98261.94;8379945;28;20516;-76
2023/03/01 13:27:29;;;;;;;15.93;13.00;;;;;;;13.49;27.52;98243.09;8379447;28;20571;-76
2023/03/01 13:32:03;;;;;;;15.02;13.55;;;;;;;13.59;27.32;98251.28;8379012;28;20436;-76
2023/03/01 13:36:08;;;;;;;14.77;13.13;;;;;;;13.95;27.17;98251.09;8379766;28;20249;-76
2023/03/01 13:40:53;;;;;;;15.80;12.23;;;;;;;13.95;27.27;98247.66;8379502;28;20298;-77
2023/03/01 13:44:58;;;;;;;14.50;12.97;;;;;;;13.70;27.75;98243.75;8359613;28;20276;-77
2023/03/01 13:49:01;;;;;;;14.27;12.03;;;;;;;14.05;27.46;98234.06;8379438;28;20234;-77
2023/03/01 13:53:08;;;;;;;16.27;13.03;;;;;;;13.56;28.01;98241.03;8379446;28;20239;-77
2023/03/01 13:57:19;;;;;;;15.80;13.33;;;;;;;13.74;27.37;98229.66;8379800;28;20222;-76
2023/03/01 14:01:28;;;;;;;14.30;12.10;;;;;;;14.24;27.06;98225.22;8379578;28;20293;-77
2023/03/01 14:05:33;;;;;;;14.30;12.80;;;;;;;12.68;28.92;98194.28;8377165;28;20377;-76
2023/03/01 14:09:39;;;;;;;15.83;12.00;;;;;;;13.93;28.74;98221.69;8379539;28;20231;-78
2023/03/01 14:13:50;;;;;;;14.27;12.77;;;;;;;13.79;28.41;98221.63;8378487;28;20234;-78
2023/03/01 14:17:59;;;;;;;14.07;12.67;;;;;;;13.68;28.69;98203.94;8379196;28;20314;-78
2023/03/01 14:22:21;;;;;;;15.37;12.30;;;;;;;14.19;28.05;98220.28;8379290;28;20530;-78
2023/03/01 14:26:24;;;;;;;13.97;12.10;;;;;;;12.98;29.85;98217.03;8378934;28;20229;-77
2023/03/01 14:30:29;;;;;;;12.93;11.63;;;;;;;13.34;29.58;98216.13;8379279;28;20223;-77
2023/03/01 14:34:33;;;;;;;13.87;12.30;;;;;;;13.10;29.46;98220.81;8378759;28;20388;-76
2023/03/01 14:38:37;;;;;;;13.60;11.63;;;;;;;13.15;30.05;98211.00;8382357;28;20404;-76
2023/03/01 14:42:40;;;;;;;12.73;11.40;;;;;;;12.61;31.24;98223.22;8385170;28;20416;-76
2023/03/01 14:46:45;;;;;;;13.70;12.07;;;;;;;13.36;29.94;98224.69;8384362;28;20237;-76
2023/03/01 14:50:51;;;;;;;13.87;12.43;;;;;;;13.19;30.03;98225.50;8385013;28;20272;-76
2023/03/01 14:54:55;;;;;;;13.30;11.60;;;;;;;12.71;30.87;98224.44;8384661;28;20225;-76
2023/03/01 14:59:01;;;;;;;13.40;11.37;;;;;;;11.72;32.25;98212.59;8384774;28;20233;-76
2023/03/01 15:03:09;;;;;;;12.50;10.17;;;;;;;12.36;31.94;98218.38;8384522;28;20236;-76
2023/03/01 15:07:15;;;;;;;13.20;10.03;;;;;;;12.62;31.90;98224.88;8384525;28;20271;-76
2023/03/01 15:11:22;;;;;;;13.60;11.47;;;;;;;12.51;31.10;98230.63;8384415;28;20272;-76
2023/03/01 15:15:37;;;;;;;13.73;11.27;;;;;;;12.83;30.87;98229.06;8384533;28;20225;-76
2023/03/01 15:19:40;;;;;;;12.63;10.33;;;;;;;12.93;31.21;98218.19;8384011;28;20278;-76
2023/03/01 15:23:50;;;;;;;12.23;10.67;;;;;;;12.88;30.78;98197.63;8383666;28;20237;-77
2023/03/01 15:27:58;;;;;;;13.10;10.50;;;;;;;12.70;30.53;98168.22;8384037;28;20229;-77
2023/03/01 15:32:06;;;;;;;12.57;10.83;;;;;;;12.75;31.45;98219.94;8383511;28;20236;-76
2023/03/01 15:36:32;;;;;;;16.23;11.63;;;;;;;12.46;31.51;98217.00;8383571;28;20218;-77
2023/03/01 15:40:37;;;;;;;15.10;11.10;;;;;;;12.44;31.60;98219.66;8383641;28;20232;-76
2023/03/01 15:44:44;;;;;;;12.93;10.40;;;;;;;12.26;31.84;98194.56;8382655;28;20429;-76
2023/03/01 15:48:49;;;;;;;11.97;10.53;;;;;;;11.11;34.12;98223.91;8382394;28;20223;-76
2023/03/01 15:52:52;;;;;;;15.53;12.90;;;;;;;11.27;34.22;98193.84;8382459;28;20314;-76
2023/03/01 15:56:57;;;;;;;13.17;11.10;;;;;;;11.01;34.41;98225.22;8383119;28;20225;-76
2023/03/01 16:01:00;;;;;;;11.97;10.60;;;;;;;11.34;33.64;98220.31;8382899;28;20235;-77
2023/03/01 16:05:05;;;;;;;13.60;10.73;;;;;;;11.18;34.69;98232.28;8382620;28;20229;-77
2023/03/01 16:09:07;;;;;;;15.33;11.80;;;;;;;10.61;34.79;98147.41;8381519;28;20244;-76
2023/03/01 16:13:12;;;;;;;16.40;11.83;;;;;;;10.74;34.86;98222.84;8382179;28;20512;-78
2023/03/01 16:17:15;;;;;;;12.53;11.10;;;;;;;10.82;34.65;98217.38;8382419;28;20405;-76
2023/03/01 16:21:21;;;;;;;13.20;10.87;;;;;;;10.49;34.62;98151.34;8382238;28;20229;-76
2023/03/01 16:25:24;;;;;;;14.80;12.93;;;;;;;10.22;35.88;98215.38;8382066;28;20239;-78
2023/03/01 16:29:29;;;;;;;16.40;11.50;;;;;;;10.51;35.17;98205.66;8382014;28;20225;-76
2023/03/01 16:33:32;;;;;;;23.30;19.17;;;;;;;9.82;36.95;98226.41;8381826;28;20457;-78
2023/03/01 16:37:36;;;;;;;15.43;13.82;;;;;;;9.66;36.90;98226.97;8380662;28;20409;-78
2023/03/01 16:41:39;;;;;;;17.00;14.40;;;;;;;9.95;36.10;98218.09;8381301;28;20225;-77
2023/03/01 16:45:44;;;;;;;15.43;12.37;;;;;;;9.61;36.90;98204.75;8380838;28;20229;-78
2023/03/01 16:49:47;;;;;;;16.10;12.90;;;;;;;9.56;37.40;98223.03;8381267;28;20289;-78
2023/03/01 16:53:51;;;;;;;21.43;18.40;;;;;;;9.48;37.37;98223.31;8380939;28;20329;-77
2023/03/01 16:57:54;;;;;;;18.63;15.30;;;;;;;9.81;36.99;98227.31;8380961;28;20230;-78
2023/03/01 17:01:58;;;;;;;18.33;14.97;;;;;;;9.66;37.02;98211.44;8379560;28;20239;-78
2023/03/01 17:06:03;;;;;;;15.07;13.03;;;;;;;9.66;37.12;98202.84;8380337;28;20236;-77
2023/03/01 17:10:11;;;;;;;14.43;12.10;;;;;;;9.59;37.02;98182.41;8380448;28;20225;-78
2023/03/01 17:14:15;;;;;;;15.17;11.30;;;;;;;9.92;36.86;98230.34;8380239;28;20233;-78
2023/03/01 17:18:20;;;;;;;15.23;11.77;;;;;;;9.70;37.32;98238.88;8380313;28;20446;-78
2023/03/01 17:22:24;;;;;;;16.17;12.30;;;;;;;9.81;37.07;98237.66;8379156;28;20402;-78
2023/03/01 17:26:28;;;;;;;18.80;15.27;;;;;;;9.62;37.48;98247.81;8380051;28;20229;-77
2023/03/01 17:30:30;;;;;;;24.97;19.87;;;;;;;9.65;37.15;98253.72;8380076;28;20227;-77
2023/03/01 17:34:36;;;;;;;19.90;16.20;;;;;;;9.37;36.95;98212.50;8380848;28;20231;-77
2023/03/01 17:38:42;;;;;;;16.83;14.00;;;;;;;9.57;37.64;98268.66;8381454;28;20525;-77
2023/03/01 17:42:44;;;;;;;17.37;14.00;;;;;;;9.61;37.68;98277.16;8380826;28;20216;-75
2023/03/01 17:46:47;;;;;;;18.00;15.20;;;;;;;9.58;37.57;98278.94;8381230;28;20225;-75
2023/03/01 17:50:52;;;;;;;16.90;13.97;;;;;;;9.29;38.20;98284.28;8380716;28;20231;-75
2023/03/01 17:54:55;;;;;;;15.00;13.40;;;;;;;9.27;38.41;98288.66;8381097;28;20233;-74
2023/03/01 17:58:58;;;;;;;18.13;13.83;;;;;;;9.47;37.98;98275.06;8380740;28;20224;-75
2023/03/01 18:03:03;;;;;;;16.23;13.63;;;;;;;9.25;37.93;98270.63;8381180;28;20244;-76
2023/03/01 18:07:07;;;;;;;14.40;12.33;;;;;;;9.04;38.60;98240.34;8380655;28;20229;-75
2023/03/01 18:11:13;;;;;;;15.00;13.20;;;;;;;9.29;38.62;98307.53;8382057;28;20259;-75
2023/03/01 18:15:16;;;;;;;15.73;12.97;;;;;;;9.13;38.94;98297.72;8387822;28;20377;-75
2023/03/01 18:19:21;;;;;;;16.57;13.67;;;;;;;9.32;38.59;98313.44;8387420;28;20258;-74
2023/03/01 18:23:30;;;;;;;15.93;13.50;;;;;;;9.34;38.40;98309.06;8387220;28;20290;-76
2023/03/01 18:27:33;;;;;;;18.70;13.90;;;;;;;9.17;38.98;98304.47;8387192;28;20245;-75
2023/03/01 18:31:36;;;;;;;17.10;12.93;;;;;;;9.16;39.12;98304.53;8387209;28;20224;-75
2023/03/01 18:35:39;;;;;;;35.80;28.20;;;;;;;8.83;38.97;98265.16;8386393;28;20448;-74
2023/03/01 18:39:43;;;;;;;27.03;21.87;;;;;;;9.17;39.00;98304.47;8386527;28;20224;-75
2023/03/01 18:43:46;;;;;;;23.17;16.20;;;;;;;8.80;39.06;98266.94;8386611;28;20415;-74
2023/03/01 18:47:49;;;;;;;18.33;14.77;;;;;;;9.09;38.93;98303.06;8386323;28;20233;-74
2023/03/01 18:51:52;;;;;;;20.70;15.80;;;;;;;8.86;39.69;98299.47;8386241;28;20229;-74
2023/03/01 18:56:01;;;;;;;19.63;14.87;;;;;;;8.89;39.40;98296.81;8386443;28;20224;-74
2023/03/01 19:00:04;;;;;;;18.10;15.93;;;;;;;8.90;40.04;98301.06;8386161;28;20229;-75